createdAt,value
2023-02-26T00:02:27.359Z,98272.28
2023-02-26T00:05:30.018Z,98275.75
2023-02-26T00:08:33.597Z,98287.09
2023-02-26T00:11:35.332Z,98291.47
2023-02-26T00:14:37.074Z,98290.63
2023-02-26T00:17:42.543Z,98294.09
2023-02-26T00:20:44.612Z,98294.13
2023-02-26T00:23:47.902Z,98296.72
2023-02-26T00:26:49.390Z,98306.34
2023-02-26T00:29:51.444Z,98302.84
2023-02-26T00:32:53.340Z,98304.59
2023-02-26T00:35:56.858Z,98315.94
2023-02-26T00:39:07.575Z,98320.28
2023-02-26T00:42:09.482Z,98316.81
2023-02-26T00:45:11.799Z,98317.69
2023-02-26T00:48:22.645Z,98329.03
2023-02-26T00:51:30.892Z,98325.56
2023-02-26T00:54:33.838Z,98333.41
2023-02-26T00:57:35.725Z,98336.00
2023-02-26T01:00:37.356Z,98336.88
2023-02-26T01:03:39.340Z,98343.84
2023-02-26T01:06:42.857Z,98343.88
2023-02-26T01:09:46.806Z,98341.25
2023-02-26T01:12:49.037Z,98343.00
2023-02-26T01:15:56.173Z,98343.88
2023-02-26T01:19:02.036Z,98349.09
2023-02-26T01:22:06.323Z,98351.72
2023-02-26T01:25:11.588Z,98350.81
2023-02-26T01:28:13.748Z,98356.94
2023-02-26T01:31:24.269Z,98363.03
2023-02-26T01:34:29.647Z,98360.41
2023-02-26T01:37:34.574Z,98360.41
2023-02-26T01:40:48.445Z,98356.06
2023-02-26T01:43:54.656Z,98352.56
2023-02-26T01:47:06.737Z,98360.44
2023-02-26T01:50:12.797Z,98357.81
2023-02-26T01:53:19.838Z,98363.03
2023-02-26T01:56:23.276Z,98361.28
2023-02-26T01:59:25.356Z,98363.91
2023-02-26T02:02:27.375Z,98365.66
2023-02-26T02:13:12.800Z,98381.34
2023-02-26T02:16:18.395Z,98375.25
2023-02-26T02:19:28.417Z,98382.22
2023-02-26T02:22:40.738Z,98374.41
2023-02-26T02:26:05.207Z,98379.59
2023-02-26T02:29:21.896Z,98380.47
2023-02-26T02:32:27.727Z,98393.53
2023-02-26T02:35:32.289Z,98396.16
2023-02-26T02:38:35.740Z,98393.53
2023-02-26T02:41:39.272Z,98400.53
2023-02-26T02:44:43.510Z,98406.59
2023-02-26T02:47:48.374Z,98417.94
2023-02-26T02:50:52.455Z,98412.72
2023-02-26T02:53:57.325Z,98415.34
2023-02-26T02:57:01.931Z,98416.22
2023-02-26T03:00:07.020Z,98421.44
2023-02-26T03:03:15.755Z,98430.13
2023-02-26T03:06:17.963Z,98424.91
2023-02-26T03:09:19.648Z,98438.00
2023-02-26T03:12:21.171Z,98432.75
2023-02-26T03:15:29.683Z,98438.88
2023-02-26T03:18:41.189Z,98440.56
2023-02-26T03:21:48.679Z,98446.69
2023-02-26T03:25:04.129Z,98455.41
2023-02-26T03:28:09.052Z,98454.53
2023-02-26T03:31:16.076Z,98469.31
2023-02-26T03:34:24.644Z,98466.69
2023-02-26T03:37:30.304Z,98465.00
2023-02-26T03:40:35.462Z,98468.44
2023-02-26T03:43:41.534Z,98469.31
2023-02-26T03:46:48.105Z,98465.81
2023-02-26T03:49:55.377Z,98480.59
2023-02-26T03:52:59.192Z,98486.69
2023-02-26T03:56:15.905Z,98493.66
2023-02-26T03:59:36.737Z,98505.00
2023-02-26T04:03:19.977Z,98511.09
2023-02-26T04:06:23.785Z,98510.22
2023-02-26T04:09:25.867Z,98517.22
2023-02-26T04:12:28.314Z,98530.28
2023-02-26T04:15:30.373Z,98524.16
2023-02-26T04:18:32.383Z,98526.75
2023-02-26T04:21:35.398Z,98535.47
2023-02-26T04:24:39.107Z,98534.59
2023-02-26T04:27:41.722Z,98548.53
2023-02-26T04:30:43.812Z,98554.63
2023-02-26T04:33:47.827Z,98548.53
2023-02-26T04:36:50.961Z,98552.06
2023-02-26T04:39:52.617Z,98556.38
2023-02-26T04:42:54.597Z,98551.16
2023-02-26T04:46:00.770Z,98559.00
2023-02-26T04:49:04.948Z,98557.25
2023-02-26T04:52:08.498Z,98565.09
2023-02-26T04:55:10.925Z,98567.69
2023-02-26T04:58:13.487Z,98569.44
2023-02-26T05:01:15.846Z,98575.53
2023-02-26T05:04:17.707Z,98577.28
2023-02-26T05:07:24.768Z,98583.38
2023-02-26T05:10:26.745Z,98588.59
2023-02-26T05:13:28.348Z,98592.94
2023-02-26T05:16:30.448Z,98590.34
2023-02-26T05:19:32.413Z,98598.19
2023-02-26T05:22:35.861Z,98606.88
2023-02-26T05:25:37.436Z,98602.53
2023-02-26T05:28:39.238Z,98612.97
2023-02-26T05:31:42.954Z,98612.13
2023-02-26T05:34:45.654Z,98622.56
2023-02-26T05:37:48.898Z,98622.56
2023-02-26T05:40:50.597Z,98630.41
2023-02-26T05:43:52.138Z,98633.94
2023-02-26T05:46:54.192Z,98639.13
2023-02-26T05:49:56.153Z,98640.88
2023-02-26T05:52:59.215Z,98649.56
2023-02-26T05:56:00.894Z,98650.44
2023-02-26T05:59:02.547Z,98655.72
2023-02-26T06:02:04.344Z,98655.72
2023-02-26T06:05:06.693Z,98667.03
2023-02-26T06:08:12.098Z,98667.91
2023-02-26T06:11:14.100Z,98674.88
2023-02-26T06:14:15.778Z,98669.66
2023-02-26T06:17:17.607Z,98683.59
2023-02-26T06:20:19.429Z,98690.56
2023-02-26T06:23:22.488Z,98693.16
2023-02-26T06:26:24.387Z,98704.44
2023-02-26T06:29:26.280Z,98711.41
2023-02-26T06:32:30.580Z,98718.38
2023-02-26T06:35:32.630Z,98725.34
2023-02-26T06:38:35.753Z,98734.06
2023-02-26T06:41:37.454Z,98733.19
2023-02-26T06:44:39.272Z,98736.66
2023-02-26T06:47:41.062Z,98737.47
2023-02-26T06:50:42.839Z,98753.16
2023-02-26T06:53:45.762Z,98761.84
2023-02-26T06:56:47.349Z,98763.59
2023-02-26T06:59:48.932Z,98767.13
2023-02-26T07:02:51.526Z,98763.66
2023-02-26T07:05:53.128Z,98768.88
2023-02-26T07:08:56.608Z,98779.34
2023-02-26T07:11:58.162Z,98774.13
2023-02-26T07:14:59.858Z,98784.59
2023-02-26T07:18:02.469Z,98791.59
2023-02-26T07:21:04.620Z,98796.84
2023-02-26T07:24:08.227Z,98802.06
2023-02-26T07:27:10.288Z,98805.56
2023-02-26T07:30:12.519Z,98809.91
2023-02-26T07:33:14.087Z,98815.22
2023-02-26T07:36:15.903Z,98812.63
2023-02-26T07:39:18.887Z,98818.81
2023-02-26T07:42:20.571Z,98827.59
2023-02-26T07:45:22.609Z,98834.56
2023-02-26T07:48:24.223Z,98840.72
2023-02-26T07:51:26.213Z,98850.34
2023-02-26T07:54:29.349Z,98860.81
2023-02-26T07:57:31.016Z,98860.88
2023-02-26T08:00:33.243Z,98873.13
2023-02-26T08:03:34.901Z,98866.22
2023-02-26T08:06:36.803Z,98856.63
2023-02-26T08:09:39.781Z,98865.41
2023-02-26T08:12:41.433Z,98875.94
2023-02-26T08:15:44.065Z,98884.66
2023-02-26T08:18:45.920Z,98885.59
2023-02-26T08:21:47.953Z,98889.09
2023-02-26T08:24:52.226Z,98896.03
2023-02-26T08:27:53.813Z,98903.00
2023-02-26T08:30:55.796Z,98897.81
2023-02-26T08:33:57.822Z,98911.84
2023-02-26T08:36:59.578Z,98910.09
2023-02-26T08:40:02.514Z,98910.97
2023-02-26T08:43:04.450Z,98920.56
2023-02-26T08:46:06.681Z,98926.81
2023-02-26T08:49:08.779Z,98929.44
2023-02-26T08:52:10.434Z,98931.22
2023-02-26T08:55:13.791Z,98933.88
2023-02-26T08:58:15.611Z,98944.38
2023-02-26T09:01:17.165Z,98945.25
2023-02-26T09:04:18.955Z,98943.56
2023-02-26T09:07:20.590Z,98954.94
2023-02-26T09:10:24.819Z,98967.19
2023-02-26T09:13:26.559Z,98965.38
2023-02-26T09:19:49.036Z,98978.38
2023-02-26T09:22:51.135Z,98988.00
2023-02-26T09:25:55.062Z,98993.28
2023-02-26T09:28:56.684Z,98999.41
2023-02-26T09:31:58.384Z,98994.16
2023-02-26T09:35:00.088Z,99002.03
2023-02-26T09:38:01.675Z,99011.59
2023-02-26T09:41:06.325Z,99011.59
2023-02-26T09:44:11.222Z,99007.22
2023-02-26T09:47:16.382Z,99010.72
2023-02-26T09:50:20.387Z,99012.59
2023-02-26T09:53:24.705Z,99017.91
2023-02-26T09:56:33.592Z,99010.91
2023-02-26T09:59:35.224Z,99021.47
2023-02-26T10:02:40.462Z,99018.88
2023-02-26T10:05:46.607Z,99013.59
2023-02-26T10:08:56.515Z,99015.34
2023-02-26T10:12:01.544Z,99021.50
2023-02-26T10:15:05.944Z,99028.50
2023-02-26T10:18:10.148Z,99032.03
2023-02-26T10:21:13.520Z,99032.00
2023-02-26T10:24:18.217Z,99037.25
2023-02-26T10:27:24.658Z,99033.75
2023-02-26T10:30:31.660Z,99040.75
2023-02-26T10:33:36.470Z,99046.00
2023-02-26T10:36:42.487Z,99046.88
2023-02-26T10:39:47.701Z,99059.16
2023-02-26T10:42:52.922Z,99060.91
2023-02-26T10:46:05.369Z,99067.03
2023-02-26T10:49:31.515Z,99066.16
2023-02-26T10:52:34.044Z,99075.78
2023-02-26T10:55:40.121Z,99067.03
2023-02-26T10:58:43.527Z,99067.03
2023-02-26T11:01:45.862Z,99073.19
2023-02-26T11:04:51.762Z,99081.94
2023-02-26T11:08:01.004Z,99072.28
2023-02-26T11:11:03.663Z,99078.38
2023-02-26T11:14:08.390Z,99080.19
2023-02-26T11:17:11.852Z,99074.03
2023-02-26T11:20:16.330Z,99076.66
2023-02-26T11:23:22.657Z,99082.81
2023-02-26T11:26:26.960Z,99079.25
2023-02-26T11:29:33.285Z,99069.63
2023-02-26T11:32:35.602Z,99072.28
2023-02-26T11:35:37.231Z,99073.13
2023-02-26T11:38:39.019Z,99074.81
2023-02-26T11:41:41.440Z,99081.88
2023-02-26T11:44:46.098Z,99075.72
2023-02-26T11:47:49.401Z,99074.81
2023-02-26T11:50:53.031Z,99075.72
2023-02-26T11:53:55.712Z,99085.28
2023-02-26T11:57:01.186Z,99080.00
2023-02-26T12:00:17.711Z,99072.09
2023-02-26T12:03:22.017Z,99072.88
2023-02-26T12:06:26.721Z,99070.97
2023-02-26T12:09:28.465Z,99074.31
2023-02-26T12:12:38.128Z,99076.25
2023-02-26T12:15:46.385Z,99085.22
2023-02-26T12:18:54.768Z,99080.84
2023-02-26T12:22:07.224Z,99078.25
2023-02-26T12:25:18.678Z,99077.41
2023-02-26T12:28:29.830Z,99077.38
2023-02-26T12:31:59.183Z,99073.81
2023-02-26T12:35:15.652Z,99089.59
2023-02-26T12:38:24.773Z,99081.78
2023-02-26T12:45:12.257Z,99091.97
2023-02-26T12:48:30.221Z,99089.53
2023-02-26T12:51:38.630Z,99102.53
2023-02-26T12:54:47.514Z,99092.84
2023-02-26T12:58:07.531Z,99090.06
2023-02-26T13:01:22.228Z,99093.59
2023-02-26T13:04:37.550Z,99098.91
2023-02-26T13:07:55.999Z,99090.97
2023-02-26T13:11:04.759Z,99094.38
2023-02-26T13:14:15.754Z,99085.59
2023-02-26T13:17:24.483Z,99087.38
2023-02-26T13:20:27.431Z,99085.72
2023-02-26T13:23:31.462Z,99081.34
2023-02-26T13:26:33.843Z,99082.28
2023-02-26T13:29:37.200Z,99074.59
2023-02-26T13:32:41.947Z,99085.88
2023-02-26T13:35:44.956Z,99075.16
2023-02-26T13:42:04.869Z,99077.72
2023-02-26T13:45:16.588Z,99071.34
2023-02-26T13:48:29.527Z,99075.66
2023-02-26T13:51:34.576Z,99079.53
2023-02-26T13:54:43.339Z,99086.78
2023-02-26T13:57:48.417Z,99078.81
2023-02-26T14:00:58.378Z,99076.19
2023-02-26T14:04:22.559Z,99072.53
2023-02-26T14:10:44.728Z,99078.53
2023-02-26T14:17:15.039Z,99079.88
2023-02-26T14:20:23.726Z,99082.47
2023-02-26T14:23:32.299Z,99085.78
2023-02-26T14:26:35.937Z,99088.28
2023-02-26T14:29:39.587Z,99094.53
2023-02-26T14:35:58.832Z,99090.28
2023-02-26T14:39:02.385Z,99080.66
2023-02-26T14:42:06.174Z,99086.75
2023-02-26T14:48:32.975Z,99093.66
2023-02-26T14:51:43.191Z,99086.63
2023-02-26T14:58:32.439Z,99090.06
2023-02-26T15:01:46.419Z,99097.03
2023-02-26T15:05:05.973Z,99102.34
2023-02-26T15:08:18.472Z,99102.44
2023-02-26T15:11:38.003Z,99103.34
2023-02-26T15:14:48.154Z,99111.28
2023-02-26T15:17:56.444Z,99103.34
2023-02-26T15:21:03.981Z,99104.25
2023-02-26T15:24:10.969Z,99109.47
2023-02-26T15:27:15.680Z,99114.03
2023-02-26T15:30:17.863Z,99119.31
2023-02-26T15:33:20.556Z,99119.22
2023-02-26T15:36:24.600Z,99109.53
2023-02-26T15:39:27.929Z,99110.41
2023-02-26T15:42:33.603Z,99114.84
2023-02-26T15:45:37.400Z,99122.75
2023-02-26T15:48:42.376Z,99120.16
2023-02-26T15:51:45.068Z,99125.53
2023-02-26T15:54:49.465Z,99129.97
2023-02-26T16:01:15.450Z,99138.78
2023-02-26T16:04:18.594Z,99145.84
2023-02-26T16:07:20.357Z,99141.44
2023-02-26T16:10:30.040Z,99145.81
2023-02-26T16:13:33.003Z,99146.69
2023-02-26T16:16:37.781Z,99142.34
2023-02-26T16:19:43.923Z,99150.19
2023-02-26T16:22:50.298Z,99144.94
2023-02-26T16:25:56.552Z,99144.09
2023-02-26T16:29:01.454Z,99144.94
2023-02-26T16:32:04.709Z,99144.94
2023-02-26T16:35:11.419Z,99147.56
2023-02-26T16:38:17.840Z,99147.56
2023-02-26T16:41:23.573Z,99152.84
2023-02-26T16:44:36.699Z,99158.13
2023-02-26T16:47:40.336Z,99164.25
2023-02-26T16:50:41.972Z,99162.50
2023-02-26T16:53:47.594Z,99166.00
2023-02-26T16:56:52.589Z,99162.50
2023-02-26T17:03:17.310Z,99180.91
2023-02-26T17:06:19.706Z,99175.66
2023-02-26T17:09:34.581Z,99187.91
2023-02-26T17:12:42.828Z,99187.91
2023-02-26T17:15:45.512Z,99192.28
2023-02-26T17:25:22.130Z,99197.56
2023-02-26T17:28:27.274Z,99197.56
2023-02-26T17:31:29.231Z,99201.06
2023-02-26T17:34:31.123Z,99201.94
2023-02-26T17:37:33.721Z,99203.69
2023-02-26T17:40:39.444Z,99214.19
2023-02-26T17:43:42.426Z,99211.56
2023-02-26T17:46:44.507Z,99219.47
2023-02-26T17:49:46.714Z,99222.09
2023-02-26T17:52:48.344Z,99231.72
2023-02-26T17:55:52.483Z,99231.72
2023-02-26T17:58:56.290Z,99225.56
2023-02-26T18:01:57.946Z,99232.56
2023-02-26T18:04:59.555Z,99233.47
2023-02-26T18:08:01.444Z,99236.09
2023-02-26T18:11:04.309Z,99234.34
2023-02-26T18:14:07.873Z,99241.34
2023-02-26T18:17:12.372Z,99241.34
2023-02-26T18:20:16.773Z,99240.47
2023-02-26T18:23:18.768Z,99243.09
2023-02-26T18:26:22.880Z,99239.59
2023-02-26T18:29:25.936Z,99243.06
2023-02-26T18:32:28.254Z,99243.94
2023-02-26T18:35:30.932Z,99237.81
2023-02-26T18:38:32.491Z,99244.81
2023-02-26T18:41:34.599Z,99249.16
2023-02-26T18:44:37.653Z,99246.53
2023-02-26T18:47:40.032Z,99260.56
2023-02-26T18:50:41.850Z,99258.81
2023-02-26T18:53:43.434Z,99252.69
2023-02-26T18:56:46.869Z,99266.69
2023-02-26T18:59:50.098Z,99265.81
2023-02-26T19:02:51.864Z,99264.06
2023-02-26T19:05:56.237Z,99271.91
2023-02-26T19:09:02.629Z,99278.03
2023-02-26T19:12:05.743Z,99281.56
2023-02-26T19:15:09.620Z,99280.66
2023-02-26T19:18:11.281Z,99283.28
2023-02-26T19:21:13.044Z,99293.78
2023-02-26T19:24:15.180Z,99285.03
2023-02-26T19:27:16.813Z,99293.78
2023-02-26T19:30:19.949Z,99288.53
2023-02-26T19:33:21.580Z,99288.53
2023-02-26T19:36:23.291Z,99284.13
2023-02-26T19:39:25.148Z,99294.63
2023-02-26T19:42:28.497Z,99303.38
2023-02-26T19:45:31.771Z,99297.25
2023-02-26T19:48:33.647Z,99303.34
2023-02-26T19:51:35.306Z,99301.59
2023-02-26T19:54:36.845Z,99312.97
2023-02-26T19:57:38.428Z,99311.22
2023-02-26T20:00:41.347Z,99311.22
2023-02-26T20:03:42.983Z,99311.22
2023-02-26T20:06:45.081Z,99317.31
2023-02-26T20:09:48.166Z,99323.44
2023-02-26T20:12:50.507Z,99319.03
2023-02-26T20:15:53.692Z,99326.03
2023-02-26T20:18:55.250Z,99327.78
2023-02-26T20:22:00.305Z,99324.28
2023-02-26T20:25:02.000Z,99333.91
2023-02-26T20:28:03.682Z,99337.41
2023-02-26T20:31:07.184Z,99342.66
2023-02-26T20:34:08.840Z,99342.66
2023-02-26T20:37:10.436Z,99344.41
2023-02-26T20:40:12.741Z,99345.28
2023-02-26T20:43:14.806Z,99339.97
2023-02-26T20:46:17.709Z,99348.72
2023-02-26T20:49:19.514Z,99343.41
2023-02-26T20:52:21.336Z,99346.91
2023-02-26T20:55:23.073Z,99354.75
2023-02-26T20:58:24.877Z,99354.75
2023-02-26T21:01:35.385Z,99355.63
2023-02-26T21:04:36.959Z,99355.63
2023-02-26T21:07:39.518Z,99366.06
2023-02-26T21:10:41.399Z,99363.44
2023-02-26T21:13:44.720Z,99354.69
2023-02-26T21:16:47.875Z,99369.53
2023-02-26T21:19:49.787Z,99376.50
2023-02-26T21:22:51.493Z,99370.41
2023-02-26T21:25:53.095Z,99373.91
2023-02-26T21:32:19.792Z,99380.91
2023-02-26T21:35:21.997Z,99386.94
2023-02-26T21:38:23.653Z,99383.44
2023-02-26T21:41:25.510Z,99378.13
2023-02-26T21:44:27.844Z,99377.25
2023-02-26T21:47:30.886Z,99380.75
2023-02-26T21:50:32.905Z,99378.94
2023-02-26T21:53:34.685Z,99382.41
2023-02-26T21:56:36.324Z,99377.13
2023-02-26T21:59:38.311Z,99388.44
2023-02-26T22:02:43.240Z,99385.81
2023-02-26T22:05:45.780Z,99398.91
2023-02-26T22:08:47.729Z,99396.25
2023-02-26T22:11:49.568Z,99384.88
2023-02-26T22:14:51.977Z,99397.13
2023-02-26T22:17:54.933Z,99395.38
2023-02-26T22:20:57.089Z,99398.81
2023-02-26T22:24:02.118Z,99401.41
2023-02-26T22:27:03.859Z,99398.72
2023-02-26T22:30:06.766Z,99406.56
2023-02-26T22:33:10.139Z,99407.44
2023-02-26T22:36:12.382Z,99410.09
2023-02-26T22:39:14.430Z,99409.28
2023-02-26T22:42:16.295Z,99415.41
2023-02-26T22:45:18.022Z,99412.78
2023-02-26T22:48:20.961Z,99412.75
2023-02-26T22:51:22.553Z,99413.56
2023-02-26T22:54:24.282Z,99419.66
2023-02-26T22:57:25.978Z,99423.16
2023-02-26T23:00:30.510Z,99415.28
2023-02-26T23:03:33.903Z,99428.38
2023-02-26T23:06:36.755Z,99426.66
2023-02-26T23:09:38.960Z,99426.69
2023-02-26T23:12:41.163Z,99430.22
2023-02-26T23:15:42.935Z,99432.81
2023-02-26T23:18:48.236Z,99439.78
2023-02-26T23:21:49.795Z,99433.63
2023-02-26T23:24:51.506Z,99439.63
2023-02-26T23:27:53.686Z,99441.38
2023-02-26T23:30:55.521Z,99437.88
2023-02-26T23:33:58.587Z,99443.03
2023-02-26T23:37:00.552Z,99436.88
2023-02-26T23:40:02.088Z,99441.19
2023-02-26T23:43:03.725Z,99437.72
2023-02-26T23:46:05.871Z,99442.00
2023-02-26T23:49:09.645Z,99440.19
2023-02-26T23:52:11.246Z,99441.88
2023-02-26T23:55:12.909Z,99444.47
2023-02-26T23:58:14.700Z,99448.81
